Time;durP1;ratioP1;P1;durP2;ratioP2;P2;SDS_P1;SDS_P2;PMS_P1;PMS_P2;Temp;Humidity;BMP_temperature;BMP_pressure;BME280_temperature;BME280_humidity;BME280_pressure;Samples;Min_cycle;Max_cycle;Signal;HPM_P1;HPM_P2
2022/11/22 00:02:21;;;;;;;6.22;1.20;;;6.70;99.90;;;;;;5027700;28;20566;-74
2022/11/22 00:04:46;;;;;;;6.95;1.35;;;6.70;99.90;;;;;;5022911;28;20055;-73
2022/11/22 00:07:12;;;;;;;2.13;1.33;;;6.70;99.90;;;;;;5027003;28;20151;-73
2022/11/22 00:09:38;;;;;;;1.75;0.73;;;6.70;99.90;;;;;;5033220;28;20037;-73
2022/11/22 00:12:04;;;;;;;5.00;1.45;;;6.80;99.90;;;;;;5024072;28;20422;-72
2022/11/22 00:14:30;;;;;;;11.73;1.15;;;6.80;99.90;;;;;;5018058;28;20404;-72
2022/11/22 00:16:55;;;;;;;1.98;1.38;;;6.80;99.90;;;;;;5025616;28;20079;-73
2022/11/22 00:19:21;;;;;;;2.15;1.10;;;6.90;99.90;;;;;;5022601;28;20041;-73
2022/11/22 00:21:46;;;;;;;3.28;0.80;;;6.90;99.90;;;;;;5025675;28;20056;-73
2022/11/22 00:24:12;;;;;;;5.03;1.60;;;6.90;99.90;;;;;;5017870;28;20079;-72
2022/11/22 00:26:38;;;;;;;2.53;0.77;;;6.90;99.90;;;;;;5024264;28;20061;-73
2022/11/22 00:29:04;;;;;;;3.30;1.15;;;6.90;99.90;;;;;;5018279;28;20090;-73
2022/11/22 00:31:30;;;;;;;4.30;1.08;;;6.90;99.90;;;;;;5023970;28;20445;-73
2022/11/22 00:33:55;;;;;;;1.85;1.05;;;6.90;99.90;;;;;;5016533;28;20026;-73
2022/11/22 00:36:22;;;;;;;1.27;0.93;;;6.90;99.90;;;;;;5023892;28;20030;-73
2022/11/22 00:38:48;;;;;;;2.13;1.08;;;6.90;99.90;;;;;;5009948;28;20406;-73
2022/11/22 00:41:13;;;;;;;1.25;1.05;;;6.90;99.90;;;;;;5023885;28;20030;-73
2022/11/22 00:43:39;;;;;;;1.70;0.77;;;6.90;99.90;;;;;;5017894;28;20042;-73
2022/11/22 00:46:05;;;;;;;1.92;0.88;;;6.90;99.90;;;;;;5024824;28;20021;-73
2022/11/22 00:48:31;;;;;;;2.25;0.82;;;6.90;99.90;;;;;;4999860;28;20030;-73
2022/11/22 00:50:57;;;;;;;1.83;0.88;;;6.80;99.90;;;;;;5021771;28;20084;-73
2022/11/22 00:53:23;;;;;;;4.60;2.22;;;6.90;99.90;;;;;;5021106;28;20504;-73
2022/11/22 00:55:48;;;;;;;4.72;1.38;;;6.90;99.90;;;;;;5020877;28;20543;-73
2022/11/22 00:58:15;;;;;;;7.20;1.70;;;6.90;99.90;;;;;;5024213;28;20022;-73
2022/11/22 01:00:41;;;;;;;2.50;1.08;;;6.90;99.90;;;;;;5018695;28;20034;-74
2022/11/22 01:03:12;;;;;;;3.50;1.10;;;6.90;99.90;;;;;;5027155;28;20034;-74
2022/11/22 01:05:38;;;;;;;3.92;2.15;;;6.90;99.90;;;;;;5019909;28;20495;-73
2022/11/22 01:08:05;;;;;;;2.55;1.38;;;6.90;99.90;;;;;;5026276;28;20014;-73
2022/11/22 01:10:31;;;;;;;1.73;0.93;;;6.90;99.90;;;;;;5014530;28;20034;-73
2022/11/22 01:12:57;;;;;;;2.10;1.40;;;6.90;99.90;;;;;;5014776;28;20030;-73
2022/11/22 01:15:23;;;;;;;2.75;1.10;;;6.90;99.90;;;;;;5014380;28;20375;-73
2022/11/22 01:17:49;;;;;;;6.45;0.90;;;6.90;99.90;;;;;;5025210;28;20046;-73
2022/11/22 01:20:15;;;;;;;3.67;2.03;;;6.90;99.90;;;;;;5019646;28;20148;-73
2022/11/22 01:22:40;;;;;;;1.33;0.93;;;6.90;99.90;;;;;;5028885;28;20037;-73
2022/11/22 01:25:07;;;;;;;1.67;0.85;;;7.00;99.90;;;;;;5013830;28;20492;-73
2022/11/22 01:27:33;;;;;;;6.07;1.90;;;7.00;99.90;;;;;;5027085;28;20071;-73
2022/11/22 01:29:59;;;;;;;25.25;1.40;;;7.00;99.90;;;;;;5013919;28;20030;-73
2022/11/22 01:32:24;;;;;;;3.65;1.30;;;7.00;99.90;;;;;;5026947;28;20029;-73
2022/11/22 01:34:50;;;;;;;3.22;1.65;;;7.00;99.90;;;;;;5023703;28;20512;-73
2022/11/22 01:37:16;;;;;;;1.20;1.00;;;7.10;99.90;;;;;;5025727;28;20113;-73
2022/11/22 01:39:41;;;;;;;3.28;0.90;;;7.10;99.90;;;;;;5016369;28;20488;-73
2022/11/22 01:42:10;;;;;;;6.80;1.25;;;7.10;99.90;;;;;;5022971;28;20033;-73
2022/11/22 01:44:38;;;;;;;1.98;1.17;;;7.10;99.90;;;;;;5015498;28;20033;-75
2022/11/22 01:47:20;;;;;;;3.60;1.35;;;7.10;99.90;;;;;;5014881;28;20063;-74
2022/11/22 01:50:00;;;;;;;;;;;7.10;99.90;;;;;;5019403;28;20029;-73
2022/11/22 01:52:30;;;;;;;3.55;1.98;;;7.10;99.90;;;;;;5026888;28;19916;-74
2022/11/22 01:55:07;;;;;;;3.53;1.65;;;7.10;99.90;;;;;;5003540;28;20548;-74
2022/11/22 01:57:37;;;;;;;7.93;2.58;;;7.10;99.90;;;;;;5026608;28;20962;-74
2022/11/22 02:00:15;;;;;;;1.80;1.23;;;7.20;99.90;;;;;;5028141;28;20033;-74
2022/11/22 02:02:45;;;;;;;1.73;1.20;;;7.20;99.90;;;;;;5026514;28;20034;-73
2022/11/22 02:05:16;;;;;;;3.17;2.00;;;7.20;99.90;;;;;;5009552;28;20057;-74
2022/11/22 02:08:07;;;;;;;4.82;1.60;;;7.30;99.90;;;;;;5007348;28;20026;-74
2022/11/22 02:10:39;;;;;;;5.80;2.75;;;7.30;99.90;;;;;;5031974;28;20017;-74
2022/11/22 02:13:06;;;;;;;3.58;1.50;;;7.20;99.90;;;;;;4991149;28;20042;-74
2022/11/22 02:15:34;;;;;;;2.65;1.95;;;7.30;99.90;;;;;;5025871;28;20034;-73
2022/11/22 02:18:00;;;;;;;4.13;2.42;;;7.20;99.90;;;;;;5009508;28;20155;-74
2022/11/22 02:20:26;;;;;;;3.60;2.25;;;7.20;99.90;;;;;;5018219;28;20520;-73
2022/11/22 02:23:12;;;;;;;6.22;2.00;;;7.30;99.90;;;;;;5024630;28;20057;-74
2022/11/22 02:25:54;;;;;;;3.28;1.60;;;7.20;99.90;;;;;;5016460;28;20221;-74
2022/11/22 02:28:20;;;;;;;4.40;2.17;;;7.20;99.90;;;;;;5020747;28;20042;-74
2022/11/22 02:30:46;;;;;;;2.97;1.80;;;7.20;99.90;;;;;;5018587;28;20367;-74
2022/11/22 02:33:11;;;;;;;8.45;2.05;;;7.20;99.90;;;;;;5022626;28;20092;-74
2022/11/22 02:35:40;;;;;;;2.70;2.08;;;7.10;99.90;;;;;;5014847;28;20532;-73
2022/11/22 02:38:18;;;;;;;11.63;2.30;;;7.20;99.90;;;;;;5009720;28;20033;-74
2022/11/22 02:41:07;;;;;;;3.55;1.92;;;7.20;99.90;;;;;;5018100;28;20061;-73
2022/11/22 02:43:37;;;;;;;7.40;1.92;;;7.10;99.90;;;;;;4990303;28;20114;-74
2022/11/22 02:46:07;;;;;;;12.32;2.22;;;7.20;99.90;;;;;;5009808;28;20061;-74
2022/11/22 02:48:33;;;;;;;5.78;2.45;;;7.10;99.90;;;;;;5004591;28;20073;-74
2022/11/22 02:50:59;;;;;;;8.25;1.80;;;7.10;99.90;;;;;;5021535;28;20033;-74
2022/11/22 02:53:25;;;;;;;3.40;1.80;;;7.10;99.90;;;;;;5019511;28;20030;-74
2022/11/22 02:55:50;;;;;;;5.60;2.17;;;7.10;99.90;;;;;;5019327;28;20123;-74
2022/11/22 02:58:16;;;;;;;2.67;1.73;;;7.10;99.90;;;;;;5020858;28;20125;-74
2022/11/22 03:00:42;;;;;;;9.82;2.38;;;7.10;99.90;;;;;;5016869;28;20072;-74
2022/11/22 03:03:08;;;;;;;3.03;1.77;;;7.10;99.90;;;;;;5023551;28;20065;-74
2022/11/22 03:05:33;;;;;;;5.05;2.33;;;7.00;99.90;;;;;;5014968;28;20025;-74
2022/11/22 03:07:59;;;;;;;3.00;1.98;;;7.10;99.90;;;;;;5025249;28;20036;-75
2022/11/22 03:10:25;;;;;;;7.15;1.70;;;7.10;99.90;;;;;;5013742;28;20030;-74
2022/11/22 03:12:51;;;;;;;1.60;1.15;;;7.10;99.90;;;;;;5025979;28;20025;-74
2022/11/22 03:15:16;;;;;;;9.32;2.55;;;7.10;99.90;;;;;;5015789;28;20112;-74
2022/11/22 03:17:42;;;;;;;3.92;2.35;;;7.10;99.90;;;;;;5013236;28;20060;-75
2022/11/22 03:20:08;;;;;;;3.50;1.80;;;7.10;99.90;;;;;;5018645;28;20033;-75
2022/11/22 03:22:34;;;;;;;1.70;1.17;;;7.10;99.90;;;;;;5025988;28;20033;-74
2022/11/22 03:25:00;;;;;;;1.95;1.02;;;7.10;99.90;;;;;;5017773;28;20092;-74
2022/11/22 03:27:25;;;;;;;15.90;2.00;;;7.20;99.90;;;;;;5023771;28;20025;-74
2022/11/22 03:29:51;;;;;;;7.00;1.45;;;7.20;99.90;;;;;;5011114;28;20139;-73
2022/11/22 03:32:17;;;;;;;6.28;2.72;;;7.20;99.90;;;;;;5023817;28;20036;-74
2022/11/22 03:34:42;;;;;;;2.83;1.55;;;7.20;99.90;;;;;;5017437;28;20072;-73
2022/11/22 03:37:08;;;;;;;2.72;1.38;;;7.20;99.90;;;;;;5021977;28;20034;-73
2022/11/22 03:39:34;;;;;;;4.22;1.65;;;7.20;99.90;;;;;;5033824;28;20025;-74
2022/11/22 03:41:59;;;;;;;3.22;2.00;;;7.20;99.90;;;;;;5028149;28;20038;-73
2022/11/22 03:44:25;;;;;;;3.53;1.58;;;7.20;99.90;;;;;;5029101;28;20021;-74
2022/11/22 03:46:51;;;;;;;1.70;1.10;;;7.30;99.90;;;;;;5029120;28;20619;-74
2022/11/22 03:49:17;;;;;;;2.83;1.23;;;7.20;99.90;;;;;;5019662;28;20493;-73
2022/11/22 03:51:42;;;;;;;2.65;1.92;;;7.20;99.90;;;;;;5031290;28;20064;-73
2022/11/22 03:54:08;;;;;;;2.38;1.75;;;7.20;99.90;;;;;;5018905;28;20532;-73
2022/11/22 03:56:34;;;;;;;8.07;1.45;;;7.20;99.90;;;;;;5018578;28;20044;-74
2022/11/22 03:59:00;;;;;;;2.72;1.20;;;7.20;99.90;;;;;;5028148;28;20076;-74
2022/11/22 04:01:25;;;;;;;2.92;1.02;;;7.30;99.90;;;;;;5017152;28;20029;-73
2022/11/22 04:03:51;;;;;;;3.53;1.20;;;7.40;99.90;;;;;;5008423;28;20034;-73
2022/11/22 04:06:17;;;;;;;4.22;1.42;;;7.40;99.90;;;;;;5001540;28;20604;-73
2022/11/22 04:08:43;;;;;;;7.03;1.60;;;7.40;99.90;;;;;;4998986;28;20477;-73
2022/11/22 04:11:08;;;;;;;2.97;1.42;;;7.40;99.90;;;;;;5000269;28;20167;-74
2022/11/22 04:16:19;;;;;;;6.32;1.85;;;7.40;99.90;;;;;;5000287;28;20121;-73
2022/11/22 04:18:44;;;;;;;20.23;1.73;;;7.50;99.90;;;;;;5001076;28;20087;-74
2022/11/22 04:26:39;;;;;;;4.28;1.40;;;7.60;99.90;;;;;;5000365;28;20132;-73
2022/11/22 04:29:04;;;;;;;12.88;2.10;;;7.60;99.90;;;;;;4999825;28;21810;-73
2022/11/22 04:34:15;;;;;;;1.80;0.98;;;7.70;99.90;;;;;;5001243;28;20036;-73
2022/11/22 04:36:40;;;;;;;3.05;1.48;;;7.70;99.90;;;;;;5002480;28;20413;-73
2022/11/22 04:39:06;;;;;;;1.90;0.85;;;7.70;99.90;;;;;;4999853;28;20037;-73
2022/11/22 04:41:32;;;;;;;3.50;1.73;;;7.60;99.90;;;;;;4999541;28;20459;-73
2022/11/22 04:46:42;;;;;;;1.33;0.88;;;7.50;99.90;;;;;;4998478;28;20125;-72
2022/11/22 04:49:07;;;;;;;4.13;1.33;;;7.50;99.90;;;;;;4999952;28;20160;-70
2022/11/22 04:54:17;;;;;;;1.67;1.27;;;7.50;99.90;;;;;;4998737;28;20128;-70
2022/11/22 04:56:43;;;;;;;5.07;0.98;;;7.50;99.90;;;;;;4999953;28;20049;-70
2022/11/22 04:59:09;;;;;;;3.60;1.13;;;7.50;99.90;;;;;;5002270;28;20788;-68
2022/11/22 05:01:34;;;;;;;4.53;1.10;;;7.50;99.90;;;;;;4983853;28;20045;-68
2022/11/22 05:04:00;;;;;;;8.65;1.65;;;7.40;99.90;;;;;;4999204;28;20126;-68
2022/11/22 05:06:26;;;;;;;5.65;1.58;;;7.40;99.90;;;;;;4998229;28;20022;-68
2022/11/22 05:08:51;;;;;;;6.05;1.00;;;7.40;99.90;;;;;;4998440;28;20521;-68
2022/11/22 05:11:17;;;;;;;5.93;1.65;;;7.30;99.90;;;;;;4999744;28;20037;-68
2022/11/22 05:13:43;;;;;;;6.10;1.52;;;7.30;99.90;;;;;;4998308;28;20056;-68
2022/11/22 05:16:13;;;;;;;1.77;0.73;;;7.30;99.90;;;;;;4998709;28;20045;-68
2022/11/22 05:18:39;;;;;;;6.65;1.25;;;7.20;99.90;;;;;;5001479;28;20034;-68
2022/11/22 05:21:10;;;;;;;3.95;0.98;;;7.20;99.90;;;;;;4998920;28;20036;-68
2022/11/22 05:23:55;;;;;;;9.63;1.80;;;7.20;99.90;;;;;;4999578;28;20105;-69
2022/11/22 05:26:26;;;;;;;5.65;2.08;;;7.20;99.90;;;;;;4999604;28;20607;-69
2022/11/22 05:28:52;;;;;;;10.65;3.67;;;7.20;99.90;;;;;;4999695;28;20152;-68
2022/11/22 05:31:22;;;;;;;14.02;1.30;;;7.20;99.90;;;;;;4993798;28;20655;-68
2022/11/22 05:33:51;;;;;;;1.63;0.60;;;7.20;99.90;;;;;;5011905;28;20042;-68
2022/11/22 05:36:17;;;;;;;8.65;1.90;;;7.20;99.90;;;;;;5014147;28;20155;-68
2022/11/22 05:38:43;;;;;;;0.77;0.63;;;7.30;99.90;;;;;;5018836;28;20112;-69
2022/11/22 05:41:12;;;;;;;13.15;2.45;;;7.30;99.90;;;;;;5024562;28;20068;-69
2022/11/22 05:43:38;;;;;;;2.40;0.73;;;7.30;99.90;;;;;;5027100;28;20060;-69
2022/11/22 05:46:15;;;;;;;1.30;0.70;;;7.40;99.90;;;;;;5031015;28;20167;-70
2022/11/22 05:48:43;;;;;;;0.70;0.55;;;7.30;99.90;;;;;;5027182;28;20512;-68
2022/11/22 05:51:15;;;;;;;9.65;1.10;;;7.30;99.90;;;;;;5023242;28;20045;-68
2022/11/22 05:53:42;;;;;;;6.05;1.25;;;7.40;99.90;;;;;;5026007;28;20033;-69
2022/11/22 05:56:15;;;;;;;3.25;0.90;;;7.40;99.90;;;;;;5023843;28;20095;-72
2022/11/22 05:58:42;;;;;;;3.72;1.20;;;7.40;99.90;;;;;;5025428;28;20033;-73
2022/11/22 06:01:12;;;;;;;2.50;1.00;;;7.40;99.90;;;;;;5022455;28;20030;-73
2022/11/22 06:03:38;;;;;;;7.18;1.83;;;7.50;99.90;;;;;;5026973;28;20037;-70
2022/11/22 06:06:05;;;;;;;1.45;0.85;;;7.50;99.90;;;;;;5023114;28;20029;-69
2022/11/22 06:08:34;;;;;;;9.05;2.42;;;7.60;99.90;;;;;;5015947;28;20037;-70
2022/11/22 06:11:21;;;;;;;3.85;1.27;;;7.60;99.90;;;;;;5020476;28;20029;-70
2022/11/22 06:13:51;;;;;;;2.28;0.70;;;7.60;99.90;;;;;;5019260;28;20037;-71
2022/11/22 06:16:17;;;;;;;5.25;1.67;;;7.60;99.90;;;;;;5022246;28;20058;-69
2022/11/22 06:18:43;;;;;;;8.23;2.53;;;7.60;99.90;;;;;;5007158;28;20026;-69
2022/11/22 06:21:18;;;;;;;3.08;1.35;;;7.60;99.90;;;;;;5021473;28;20029;-69
2022/11/22 06:23:45;;;;;;;6.75;1.20;;;7.70;99.90;;;;;;5018709;28;20057;-68
2022/11/22 06:26:14;;;;;;;8.13;1.67;;;7.80;99.90;;;;;;5022996;28;20056;-69
2022/11/22 06:28:40;;;;;;;2.25;0.90;;;7.70;99.90;;;;;;5020241;28;20071;-69
2022/11/22 06:31:12;;;;;;;9.25;1.95;;;7.70;99.90;;;;;;5021554;28;20029;-69
2022/11/22 06:33:39;;;;;;;6.70;1.27;;;7.70;99.90;;;;;;5019682;28;20042;-71
2022/11/22 06:36:09;;;;;;;15.27;0.85;;;7.70;99.90;;;;;;5021416;28;20116;-70
2022/11/22 06:38:35;;;;;;;2.65;0.52;;;7.60;99.90;;;;;;5020342;28;20042;-70
2022/11/22 06:41:11;;;;;;;12.63;1.70;;;7.60;99.90;;;;;;5021074;28;20445;-70
2022/11/22 06:43:39;;;;;;;8.02;1.90;;;7.70;99.90;;;;;;5022186;28;20026;-70
2022/11/22 06:46:06;;;;;;;4.55;0.57;;;7.60;99.90;;;;;;5017433;28;20018;-71
2022/11/22 06:48:36;;;;;;;2.63;0.88;;;7.70;99.90;;;;;;5005968;28;20545;-70
2022/11/22 06:51:05;;;;;;;5.82;1.00;;;7.60;99.90;;;;;;5021890;28;20036;-71
2022/11/22 06:53:33;;;;;;;1.75;0.75;;;7.60;99.90;;;;;;5021303;28;20061;-70
2022/11/22 06:56:05;;;;;;;10.98;0.73;;;7.70;99.90;;;;;;5021340;28;20036;-70
2022/11/22 06:58:31;;;;;;;6.55;1.10;;;7.70;99.90;;;;;;5020986;28;20030;-70
2022/11/22 07:01:01;;;;;;;11.73;1.20;;;7.70;99.90;;;;;;5016047;28;20034;-70
2022/11/22 07:03:27;;;;;;;1.20;0.93;;;7.70;99.90;;;;;;4992809;28;20036;-69
2022/11/22 07:05:53;;;;;;;1.15;0.52;;;7.60;99.90;;;;;;5019633;28;20026;-71
2022/11/22 07:08:19;;;;;;;3.45;0.60;;;7.60;99.90;;;;;;5022864;28;20554;-70
2022/11/22 07:10:45;;;;;;;2.45;0.73;;;7.50;99.90;;;;;;5018733;28;20108;-70
2022/11/22 07:13:11;;;;;;;5.78;1.08;;;7.60;99.90;;;;;;5026559;28;20036;-70
2022/11/22 07:15:36;;;;;;;2.40;0.52;;;7.70;99.90;;;;;;5015198;28;20037;-71
2022/11/22 07:18:02;;;;;;;5.20;1.35;;;7.60;99.90;;;;;;5024558;28;20042;-69
2022/11/22 07:20:28;;;;;;;6.63;1.98;;;7.60;99.90;;;;;;5014129;28;20037;-69
2022/11/22 07:22:53;;;;;;;5.15;2.15;;;7.50;99.90;;;;;;5028607;28;20396;-70
2022/11/22 07:25:19;;;;;;;3.63;0.93;;;7.50;99.90;;;;;;5013821;28;20034;-70
2022/11/22 07:27:45;;;;;;;20.52;1.35;;;7.50;99.90;;;;;;5026580;28;20025;-69
2022/11/22 07:30:11;;;;;;;3.50;1.48;;;7.40;99.90;;;;;;5014764;28;20381;-69
2022/11/22 07:32:37;;;;;;;2.38;1.02;;;7.50;99.90;;;;;;5021698;28;20589;-70
2022/11/22 07:35:03;;;;;;;7.97;1.88;;;7.40;99.90;;;;;;5013496;28;20120;-70
2022/11/22 07:37:31;;;;;;;0.45;0.40;;;7.50;99.90;;;;;;5025663;28;20067;-71
2022/11/22 07:39:56;;;;;;;21.55;2.30;;;7.50;99.90;;;;;;5016805;28;20034;-70
2022/11/22 07:42:22;;;;;;;21.75;2.55;;;7.60;99.90;;;;;;5018083;28;20041;-71
2022/11/22 07:44:48;;;;;;;15.63;1.15;;;7.50;99.90;;;;;;5013375;28;20065;-71
2022/11/22 07:47:13;;;;;;;5.00;0.93;;;7.60;99.90;;;;;;5023645;28;20053;-70
2022/11/22 07:49:39;;;;;;;10.52;1.67;;;7.50;99.90;;;;;;5014288;28;20056;-69
2022/11/22 07:52:05;;;;;;;2.53;1.17;;;7.50;99.90;;;;;;5022032;28;20033;-69
2022/11/22 07:54:31;;;;;;;10.05;1.48;;;7.50;99.90;;;;;;5006339;28;20030;-70
2022/11/22 07:56:57;;;;;;;18.70;1.58;;;7.60;99.90;;;;;;5020631;28;20048;-70
2022/11/22 07:59:22;;;;;;;6.70;1.63;;;7.60;99.90;;;;;;5019090;28;20060;-71
2022/11/22 08:01:48;;;;;;;6.22;1.90;;;7.60;99.90;;;;;;5021837;28;20026;-70
2022/11/22 08:04:14;;;;;;;2.65;0.98;;;7.60;99.90;;;;;;5018778;28;20104;-70
2022/11/22 08:06:39;;;;;;;3.03;0.63;;;7.60;99.90;;;;;;5029801;28;20045;-70
2022/11/22 08:09:05;;;;;;;0.80;0.50;;;7.70;99.90;;;;;;5005830;28;20430;-70
2022/11/22 08:11:31;;;;;;;7.45;0.50;;;7.70;99.90;;;;;;5017179;28;20036;-70
2022/11/22 08:13:57;;;;;;;4.70;1.50;;;7.60;99.90;;;;;;5004410;28;20042;-70
2022/11/22 08:16:22;;;;;;;4.45;0.93;;;7.60;99.90;;;;;;5015782;28;20497;-71
2022/11/22 08:18:49;;;;;;;10.90;1.65;;;7.60;99.90;;;;;;5012304;28;20053;-70
2022/11/22 08:21:17;;;;;;;5.72;0.70;;;7.60;99.90;;;;;;5021914;28;20044;-71
2022/11/22 08:23:44;;;;;;;0.95;0.63;;;7.60;99.90;;;;;;5021024;28;20033;-71
2022/11/22 08:26:13;;;;;;;2.40;1.00;;;7.70;99.90;;;;;;5028181;28;20040;-71
2022/11/22 08:28:41;;;;;;;7.93;1.13;;;7.60;99.90;;;;;;5020866;28;20501;-74
2022/11/22 08:31:11;;;;;;;5.25;1.50;;;7.60;99.90;;;;;;5025654;28;20504;-71
2022/11/22 08:33:37;;;;;;;3.00;1.13;;;7.70;99.90;;;;;;5017634;28;20065;-72
2022/11/22 08:36:04;;;;;;;6.32;0.88;;;7.70;99.90;;;;;;5024278;28;20064;-73
2022/11/22 08:38:30;;;;;;;10.98;1.75;;;7.70;99.90;;;;;;5017118;28;20049;-71
2022/11/22 08:40:56;;;;;;;2.40;0.75;;;7.80;99.90;;;;;;5029587;28;20064;-73
2022/11/22 08:43:21;;;;;;;3.97;0.73;;;7.80;99.90;;;;;;5020886;28;20041;-74
2022/11/22 08:45:57;;;;;;;3.40;0.52;;;7.70;99.90;;;;;;5028426;28;20064;-75
2022/11/22 08:48:25;;;;;;;4.03;0.90;;;7.70;99.90;;;;;;5024243;28;20121;-72
2022/11/22 08:50:53;;;;;;;0.68;0.45;;;7.70;99.90;;;;;;5014609;28;20026;-70
2022/11/22 08:53:19;;;;;;;10.45;0.85;;;7.70;99.90;;;;;;5021067;28;20037;-71
2022/11/22 08:55:45;;;;;;;8.52;2.70;;;7.70;99.90;;;;;;5029668;28;20021;-71
2022/11/22 08:58:11;;;;;;;1.30;0.65;;;7.70;99.90;;;;;;5020025;28;20029;-71
2022/11/22 09:00:37;;;;;;;1.70;0.60;;;7.60;99.90;;;;;;5029450;28;20322;-71
2022/11/22 09:03:03;;;;;;;2.08;0.95;;;7.70;99.90;;;;;;5013747;28;20466;-71
2022/11/22 09:05:30;;;;;;;3.92;0.75;;;7.80;99.90;;;;;;5028074;28;20030;-70
2022/11/22 09:07:56;;;;;;;9.27;0.95;;;7.90;99.90;;;;;;5021554;28;20032;-71
2022/11/22 09:10:22;;;;;;;2.08;1.10;;;7.90;99.90;;;;;;5023420;28;20034;-70
2022/11/22 09:12:48;;;;;;;0.75;0.45;;;7.90;99.90;;;;;;5018984;28;20035;-71
2022/11/22 09:15:14;;;;;;;5.90;1.17;;;7.90;99.90;;;;;;5026077;28;20057;-71
2022/11/22 09:17:42;;;;;;;6.25;1.52;;;8.00;99.90;;;;;;5022071;28;20057;-70
2022/11/22 09:20:10;;;;;;;3.60;1.17;;;8.00;99.90;;;;;;5018715;28;20038;-71
2022/11/22 09:22:36;;;;;;;0.98;0.50;;;7.90;99.90;;;;;;5019462;28;20429;-72
2022/11/22 09:25:04;;;;;;;5.50;1.73;;;7.80;99.90;;;;;;5023067;28;20040;-71
2022/11/22 09:27:32;;;;;;;4.88;0.50;;;7.80;99.90;;;;;;5024192;28;20116;-72
2022/11/22 09:29:57;;;;;;;4.20;1.40;;;7.90;99.90;;;;;;5022824;28;20041;-72
2022/11/22 09:32:24;;;;;;;3.70;0.80;;;7.90;99.90;;;;;;5021779;28;20083;-71
2022/11/22 09:34:49;;;;;;;0.68;0.30;;;8.00;99.90;;;;;;5023914;28;20476;-70
2022/11/22 09:37:18;;;;;;;3.72;0.75;;;8.00;99.90;;;;;;5023968;28;20036;-71
2022/11/22 09:39:45;;;;;;;3.90;1.85;;;8.10;99.90;;;;;;5039005;28;20037;-71
2022/11/22 09:42:39;;;;;;;0.90;0.43;;;8.10;99.90;;;;;;5023636;28;20431;-71
2022/11/22 09:45:38;;;;;;;0.85;0.57;;;8.10;99.90;;;;;;5016433;28;20033;-71
2022/11/22 09:48:35;;;;;;;7.75;1.23;;;8.30;99.90;;;;;;5011173;28;20087;-70
2022/11/22 09:51:08;;;;;;;10.80;1.75;;;8.60;99.90;;;;;;5011868;28;20034;-71
2022/11/22 09:53:57;;;;;;;3.95;1.52;;;8.80;99.90;;;;;;5020231;28;20034;-71
2022/11/22 09:56:26;;;;;;;6.47;1.02;;;8.70;99.90;;;;;;4992931;28;20042;-72
2022/11/22 09:58:59;;;;;;;6.40;0.63;;;8.60;99.90;;;;;;5020844;28;20114;-72
2022/11/22 10:01:42;;;;;;;19.63;1.27;;;8.80;99.90;;;;;;5019016;28;20451;-72
2022/11/22 10:04:36;;;;;;;5.20;0.75;;;8.90;99.90;;;;;;5011183;28;20542;-71
2022/11/22 10:07:17;;;;;;;1.13;0.45;;;8.60;99.90;;;;;;5006600;28;20242;-71
2022/11/22 10:09:59;;;;;;;1.98;1.33;;;8.60;99.90;;;;;;5022167;28;20033;-71
2022/11/22 10:12:35;;;;;;;8.48;1.73;;;8.40;99.90;;;;;;5016575;28;20447;-71
2022/11/22 10:15:47;;;;;;;2.47;1.30;;;8.40;99.90;;;;;;5022130;28;20037;-73
2022/11/22 10:18:25;;;;;;;2.00;0.45;;;8.30;99.90;;;;;;5011964;28;20056;-83
2022/11/22 10:20:52;;;;;;;6.70;0.60;;;8.30;99.90;;;;;;5028026;28;20033;-85
2022/11/22 10:23:24;;;;;;;7.75;1.60;;;8.50;99.90;;;;;;5012386;28;20056;-79
2022/11/22 10:26:01;;;;;;;5.57;0.40;;;8.40;99.90;;;;;;5024177;28;20033;-78
2022/11/22 10:28:57;;;;;;;4.43;0.77;;;8.30;99.90;;;;;;5013518;28;20030;-78
2022/11/22 10:31:44;;;;;;;4.57;0.52;;;8.40;99.90;;;;;;5003591;28;20117;-78
2022/11/22 10:34:53;;;;;;;3.67;1.52;;;8.30;99.90;;;;;;5002583;28;20778;-73
2022/11/22 10:37:47;;;;;;;2.85;0.98;;;8.40;99.90;;;;;;5007905;28;20033;-72
2022/11/22 10:40:44;;;;;;;15.80;1.42;;;8.40;99.90;;;;;;5015456;28;20482;-74
2022/11/22 10:43:21;;;;;;;2.47;0.75;;;8.50;99.90;;;;;;5015386;28;20500;-77
2022/11/22 10:46:02;;;;;;;3.47;1.00;;;8.50;99.90;;;;;;5028656;28;20108;-74
2022/11/22 10:49:14;;;;;;;6.95;1.35;;;8.50;99.90;;;;;;5016423;28;20034;-77
2022/11/22 10:52:23;;;;;;;15.90;0.82;;;8.50;99.90;;;;;;5019347;28;20045;-82
2022/11/22 10:54:58;;;;;;;8.07;0.95;;;8.60;99.90;;;;;;5029791;28;20501;-76
2022/11/22 10:57:58;;;;;;;4.00;0.45;;;8.40;99.90;;;;;;5022431;28;20048;-75
2022/11/22 11:00:28;;;;;;;4.38;0.90;;;8.30;99.90;;;;;;5012254;28;20044;-75
2022/11/22 11:03:29;;;;;;;9.40;0.93;;;8.20;99.90;;;;;;5019977;28;20045;-76
2022/11/22 11:06:35;;;;;;;6.23;0.87;;;8.40;99.90;;;;;;5011523;28;20661;-74
2022/11/22 11:09:41;;;;;;;2.05;0.88;;;8.60;99.90;;;;;;4951612;28;20039;-76
2022/11/22 11:12:19;;;;;;;7.35;0.88;;;8.80;99.90;;;;;;5018851;28;20045;-77
2022/11/22 11:14:50;;;;;;;10.95;1.58;;;8.90;99.90;;;;;;5007819;28;20064;-77
2022/11/22 11:17:22;;;;;;;;;;;9.10;99.90;;;;;;5020532;28;20037;-76
2022/11/22 11:19:51;;;;;;;15.70;0.82;;;9.00;99.90;;;;;;4993459;28;19937;-77
2022/11/22 11:22:26;;;;;;;10.68;1.33;;;8.60;99.90;;;;;;5008771;28;20046;-72
2022/11/22 11:24:52;;;;;;;5.05;0.50;;;8.70;99.90;;;;;;5009269;28;20080;-74
2022/11/22 11:27:20;;;;;;;3.30;0.57;;;8.80;99.90;;;;;;5015853;28;20061;-76
2022/11/22 11:29:55;;;;;;;2.53;1.02;;;8.90;99.90;;;;;;5019892;28;20017;-75
2022/11/22 11:32:21;;;;;;;2.33;0.70;;;9.10;99.90;;;;;;5030266;28;20038;-77
2022/11/22 11:35:12;;;;;;;3.30;0.80;;;9.30;99.90;;;;;;5024607;28;20531;-71
2022/11/22 11:37:38;;;;;;;6.40;0.73;;;9.40;99.90;;;;;;5024701;28;20127;-74
2022/11/22 11:40:23;;;;;;;1.98;0.70;;;9.30;99.90;;;;;;5026624;28;20069;-75
2022/11/22 11:42:49;;;;;;;3.90;0.57;;;9.40;99.90;;;;;;5028873;28;20462;-73
2022/11/22 11:45:27;;;;;;;4.35;0.80;;;9.50;99.90;;;;;;5030022;28;20113;-75
2022/11/22 11:47:53;;;;;;;1.75;0.68;;;9.70;99.90;;;;;;5023913;28;20022;-74
2022/11/22 11:50:25;;;;;;;16.90;1.58;;;9.80;99.90;;;;;;5018494;28;20025;-74
2022/11/22 11:52:55;;;;;;;5.20;1.17;;;9.90;99.90;;;;;;5025128;28;20569;-75
2022/11/22 11:55:22;;;;;;;4.65;0.57;;;10.00;99.90;;;;;;5012292;28;20030;-73
2022/11/22 11:57:50;;;;;;;1.55;1.00;;;10.00;99.90;;;;;;5014534;28;20033;-77
2022/11/22 12:00:38;;;;;;;2.67;1.27;;;9.90;99.90;;;;;;5011760;28;20057;-73
2022/11/22 12:03:13;;;;;;;8.05;1.10;;;10.00;99.90;;;;;;5013024;28;20034;-71
2022/11/22 12:05:39;;;;;;;1.00;0.40;;;10.10;99.90;;;;;;5005611;28;20034;-78
2022/11/22 12:08:28;;;;;;;9.00;1.42;;;10.10;99.90;;;;;;5021627;28;20385;-74
2022/11/22 12:11:10;;;;;;;0.70;0.60;;;9.80;99.90;;;;;;5019233;28;20054;-75
2022/11/22 12:13:43;;;;;;;1.38;0.77;;;9.80;99.90;;;;;;5023424;28;20423;-74
2022/11/22 12:16:29;;;;;;;1.83;0.60;;;9.90;99.90;;;;;;5016456;28;20034;-76
2022/11/22 12:19:19;;;;;;;7.47;0.95;;;10.00;99.90;;;;;;5020643;28;20025;-73
2022/11/22 12:22:17;;;;;;;4.32;0.70;;;10.00;99.90;;;;;;5025161;28;20095;-73
2022/11/22 12:25:30;;;;;;;1.30;0.60;;;9.70;99.90;;;;;;5022869;28;20036;-71
2022/11/22 12:28:22;;;;;;;2.05;0.50;;;9.80;99.90;;;;;;5014388;28;20041;-74
2022/11/22 12:31:01;;;;;;;4.30;0.90;;;9.80;99.90;;;;;;5019793;28;20022;-76
2022/11/22 12:33:49;;;;;;;1.10;0.77;;;9.90;99.90;;;;;;5024093;28;20382;-75
2022/11/22 12:36:27;;;;;;;2.35;0.82;;;9.80;99.90;;;;;;5009701;28;20349;-74
2022/11/22 12:38:55;;;;;;;0.98;0.45;;;9.80;99.90;;;;;;5013738;28;20034;-73
2022/11/22 12:41:26;;;;;;;2.55;0.40;;;10.00;99.90;;;;;;5023191;28;20386;-74
2022/11/22 12:43:58;;;;;;;3.67;0.70;;;10.00;99.90;;;;;;5031380;28;20186;-74
2022/11/22 12:46:49;;;;;;;1.23;0.40;;;9.90;99.90;;;;;;5026597;28;20080;-79
2022/11/22 12:49:31;;;;;;;1.58;0.90;;;10.00;99.90;;;;;;5016634;28;20018;-77
2022/11/22 12:52:06;;;;;;;0.63;0.32;;;9.90;99.90;;;;;;5014362;28;20066;-74
2022/11/22 12:55:02;;;;;;;1.48;1.05;;;9.90;99.90;;;;;;5015263;28;20112;-74
2022/11/22 12:58:00;;;;;;;3.92;0.98;;;9.90;99.90;;;;;;5006317;28;20108;-74
2022/11/22 13:00:33;;;;;;;2.90;0.30;;;9.90;99.90;;;;;;5020461;28;20172;-76
2022/11/22 13:03:13;;;;;;;1.10;0.50;;;9.90;99.90;;;;;;5017439;28;20397;-75
2022/11/22 13:05:46;;;;;;;1.80;0.65;;;10.00;99.90;;;;;;5022721;28;20068;-75
2022/11/22 13:08:28;;;;;;;3.28;0.43;;;10.00;99.90;;;;;;5010063;28;20482;-76
2022/11/22 13:11:05;;;;;;;10.13;0.30;;;10.10;99.90;;;;;;5016993;28;20030;-76
2022/11/22 13:13:37;;;;;;;1.15;0.40;;;9.90;99.90;;;;;;5012419;28;20077;-75
2022/11/22 13:16:08;;;;;;;6.13;0.50;;;9.80;99.90;;;;;;5035667;28;20167;-76
2022/11/22 13:18:40;;;;;;;4.32;0.80;;;9.90;99.90;;;;;;5020288;28;20431;-75
2022/11/22 13:21:25;;;;;;;2.35;0.90;;;9.60;99.90;;;;;;5008172;28;20052;-75
2022/11/22 13:24:49;;;;;;;1.88;1.13;;;9.60;99.90;;;;;;5020202;28;20033;-75
2022/11/22 13:27:59;;;;;;;15.20;1.00;;;9.70;99.90;;;;;;5002095;28;20068;-75
2022/11/22 13:30:28;;;;;;;3.17;0.47;;;9.60;99.90;;;;;;5010599;28;20050;-76
2022/11/22 13:32:59;;;;;;;9.05;1.92;;;9.60;99.90;;;;;;5028999;28;20025;-75
2022/11/22 13:35:36;;;;;;;5.53;0.40;;;9.60;99.90;;;;;;5030974;28;20049;-76